sensor_id;sensor_type;location;lat;lon;timestamp;temperature;humidity
2913;DHT22;1466;48.778;9.166;2023-03-01T00:01:13;2.90;91.40
2913;DHT22;1466;48.778;9.166;2023-03-01T00:03:39;2.80;91.30
2913;DHT22;1466;48.778;9.166;2023-03-01T00:06:05;2.70;91.30
2913;DHT22;1466;48.778;9.166;2023-03-01T00:08:32;2.70;91.50
2913;DHT22;1466;48.778;9.166;2023-03-01T00:13:34;2.50;91.70
2913;DHT22;1466;48.778;9.166;2023-03-01T00:16:06;2.40;92.20
2913;DHT22;1466;48.778;9.166;2023-03-01T00:18:32;2.30;92.00
2913;DHT22;1466;48.778;9.166;2023-03-01T00:20:58;2.30;92.00
2913;DHT22;1466;48.778;9.166;2023-03-01T00:23:24;2.40;92.10
2913;DHT22;1466;48.778;9.166;2023-03-01T00:25:50;2.40;92.10
2913;DHT22;1466;48.778;9.166;2023-03-01T00:28:16;2.40;92.10
2913;DHT22;1466;48.778;9.166;2023-03-01T00:30:43;2.40;92.10
2913;DHT22;1466;48.778;9.166;2023-03-01T00:33:09;2.50;92.10
2913;DHT22;1466;48.778;9.166;2023-03-01T00:35:35;2.50;92.10
2913;DHT22;1466;48.778;9.166;2023-03-01T00:38:01;2.60;92.00
2913;DHT22;1466;48.778;9.166;2023-03-01T00:40:28;2.70;91.90
2913;DHT22;1466;48.778;9.166;2023-03-01T00:42:54;2.70;91.80
2913;DHT22;1466;48.778;9.166;2023-03-01T00:45:20;2.80;91.80
2913;DHT22;1466;48.778;9.166;2023-03-01T00:47:46;2.90;91.70
2913;DHT22;1466;48.778;9.166;2023-03-01T00:50:12;2.90;91.70
2913;DHT22;1466;48.778;9.166;2023-03-01T00:52:38;2.80;91.60
2913;DHT22;1466;48.778;9.166;2023-03-01T00:55:04;2.70;91.60
2913;DHT22;1466;48.778;9.166;2023-03-01T00:57:30;2.70;91.70
2913;DHT22;1466;48.778;9.166;2023-03-01T00:59:56;2.60;91.80
2913;DHT22;1466;48.778;9.166;2023-03-01T01:02:22;2.60;91.80
2913;DHT22;1466;48.778;9.166;2023-03-01T01:04:48;2.60;91.90
2913;DHT22;1466;48.778;9.166;2023-03-01T01:07:13;2.60;91.90
2913;DHT22;1466;48.778;9.166;2023-03-01T01:09:39;2.80;92.00
2913;DHT22;1466;48.778;9.166;2023-03-01T01:12:06;2.80;91.80
2913;DHT22;1466;48.778;9.166;2023-03-01T01:14:31;2.70;91.80
2913;DHT22;1466;48.778;9.166;2023-03-01T01:16:57;2.70;91.80
2913;DHT22;1466;48.778;9.166;2023-03-01T01:19:23;2.60;91.80
2913;DHT22;1466;48.778;9.166;2023-03-01T01:21:49;2.60;92.00
2913;DHT22;1466;48.778;9.166;2023-03-01T01:24:15;2.60;92.00
2913;DHT22;1466;48.778;9.166;2023-03-01T01:26:42;2.70;91.90
2913;DHT22;1466;48.778;9.166;2023-03-01T01:29:08;2.60;91.80
2913;DHT22;1466;48.778;9.166;2023-03-01T01:31:36;2.60;92.00
2913;DHT22;1466;48.778;9.166;2023-03-01T01:34:05;2.60;92.10
2913;DHT22;1466;48.778;9.166;2023-03-01T01:36:32;2.40;92.10
2913;DHT22;1466;48.778;9.166;2023-03-01T01:38:58;2.20;92.20
2913;DHT22;1466;48.778;9.166;2023-03-01T01:41:25;2.20;92.50
2913;DHT22;1466;48.778;9.166;2023-03-01T01:46:41;2.00;92.80
2913;DHT22;1466;48.778;9.166;2023-03-01T01:49:22;1.90;93.20
2913;DHT22;1466;48.778;9.166;2023-03-01T01:51:51;2.10;93.00
2913;DHT22;1466;48.778;9.166;2023-03-01T01:57:32;2.10;92.90
2913;DHT22;1466;48.778;9.166;2023-03-01T02:00:01;2.20;92.90
2913;DHT22;1466;48.778;9.166;2023-03-01T02:02:28;2.20;92.90
2913;DHT22;1466;48.778;9.166;2023-03-01T02:05:01;2.40;93.00
2913;DHT22;1466;48.778;9.166;2023-03-01T02:07:29;2.50;92.80
2913;DHT22;1466;48.778;9.166;2023-03-01T02:09:55;2.40;92.50
2913;DHT22;1466;48.778;9.166;2023-03-01T02:12:23;2.40;92.60
2913;DHT22;1466;48.778;9.166;2023-03-01T02:14:49;2.30;92.70
2913;DHT22;1466;48.778;9.166;2023-03-01T02:17:17;2.20;92.70
2913;DHT22;1466;48.778;9.166;2023-03-01T02:22:33;2.20;93.10
2913;DHT22;1466;48.778;9.166;2023-03-01T02:30:27;2.10;92.90
2913;DHT22;1466;48.778;9.166;2023-03-01T02:32:55;2.10;93.10
2913;DHT22;1466;48.778;9.166;2023-03-01T02:35:29;2.10;93.20
2913;DHT22;1466;48.778;9.166;2023-03-01T02:37:55;2.00;93.20
2913;DHT22;1466;48.778;9.166;2023-03-01T02:40:23;2.00;93.30
2913;DHT22;1466;48.778;9.166;2023-03-01T02:42:54;2.10;93.30
2913;DHT22;1466;48.778;9.166;2023-03-01T02:45:22;2.20;93.30
2913;DHT22;1466;48.778;9.166;2023-03-01T02:47:48;2.30;93.20
2913;DHT22;1466;48.778;9.166;2023-03-01T02:50:50;2.30;93.00
2913;DHT22;1466;48.778;9.166;2023-03-01T02:53:27;2.30;93.00
2913;DHT22;1466;48.778;9.166;2023-03-01T02:55:54;2.30;93.10
2913;DHT22;1466;48.778;9.166;2023-03-01T02:58:19;2.40;93.10
2913;DHT22;1466;48.778;9.166;2023-03-01T03:00:46;2.50;93.10
2913;DHT22;1466;48.778;9.166;2023-03-01T03:03:16;2.40;92.80
2913;DHT22;1466;48.778;9.166;2023-03-01T03:05:43;2.40;92.90
2913;DHT22;1466;48.778;9.166;2023-03-01T03:08:08;2.40;93.00
2913;DHT22;1466;48.778;9.166;2023-03-01T03:10:39;2.30;93.00
2913;DHT22;1466;48.778;9.166;2023-03-01T03:13:10;2.20;93.00
2913;DHT22;1466;48.778;9.166;2023-03-01T03:15:39;2.20;93.20
2913;DHT22;1466;48.778;9.166;2023-03-01T03:18:08;2.40;93.30
2913;DHT22;1466;48.778;9.166;2023-03-01T03:20:33;2.40;93.00
2913;DHT22;1466;48.778;9.166;2023-03-01T03:22:59;2.50;93.10
2913;DHT22;1466;48.778;9.166;2023-03-01T03:25:26;2.50;93.00
2913;DHT22;1466;48.778;9.166;2023-03-01T03:27:53;2.40;93.00
2913;DHT22;1466;48.778;9.166;2023-03-01T03:30:29;2.40;93.20
2913;DHT22;1466;48.778;9.166;2023-03-01T03:32:55;2.40;93.10
2913;DHT22;1466;48.778;9.166;2023-03-01T03:35:26;2.40;93.10
2913;DHT22;1466;48.778;9.166;2023-03-01T03:37:56;2.30;93.20
2913;DHT22;1466;48.778;9.166;2023-03-01T03:40:41;2.20;93.20
2913;DHT22;1466;48.778;9.166;2023-03-01T03:43:13;2.30;93.40
2913;DHT22;1466;48.778;9.166;2023-03-01T03:45:39;2.40;93.40
2913;DHT22;1466;48.778;9.166;2023-03-01T03:48:06;2.30;93.20
2913;DHT22;1466;48.778;9.166;2023-03-01T03:50:32;2.40;93.30
2913;DHT22;1466;48.778;9.166;2023-03-01T03:53:00;2.30;93.30
2913;DHT22;1466;48.778;9.166;2023-03-01T03:55:26;2.40;93.40
2913;DHT22;1466;48.778;9.166;2023-03-01T03:57:57;2.40;93.30
2913;DHT22;1466;48.778;9.166;2023-03-01T04:00:24;2.40;93.30
2913;DHT22;1466;48.778;9.166;2023-03-01T04:02:50;2.40;93.50
2913;DHT22;1466;48.778;9.166;2023-03-01T04:05:18;2.40;93.30
2913;DHT22;1466;48.778;9.166;2023-03-01T04:07:44;2.40;93.30
2913;DHT22;1466;48.778;9.166;2023-03-01T04:10:19;2.50;93.40
2913;DHT22;1466;48.778;9.166;2023-03-01T04:12:45;2.40;93.40
2913;DHT22;1466;48.778;9.166;2023-03-01T04:15:11;2.40;93.50
2913;DHT22;1466;48.778;9.166;2023-03-01T04:17:44;2.40;93.50
2913;DHT22;1466;48.778;9.166;2023-03-01T04:20:15;2.40;93.50
2913;DHT22;1466;48.778;9.166;2023-03-01T04:25:23;2.40;93.70
2913;DHT22;1466;48.778;9.166;2023-03-01T04:27:49;2.50;93.70
2913;DHT22;1466;48.778;9.166;2023-03-01T04:30:14;2.50;93.60
2913;DHT22;1466;48.778;9.166;2023-03-01T04:32:40;2.40;93.50
2913;DHT22;1466;48.778;9.166;2023-03-01T04:35:06;2.50;93.80
2913;DHT22;1466;48.778;9.166;2023-03-01T04:37:32;2.50;93.70
2913;DHT22;1466;48.778;9.166;2023-03-01T04:39:57;2.60;93.70
2913;DHT22;1466;48.778;9.166;2023-03-01T04:42:23;2.60;93.70
2913;DHT22;1466;48.778;9.166;2023-03-01T04:44:49;2.70;93.70
2913;DHT22;1466;48.778;9.166;2023-03-01T04:47:16;2.70;93.60
2913;DHT22;1466;48.778;9.166;2023-03-01T04:49:42;2.80;93.70
2913;DHT22;1466;48.778;9.166;2023-03-01T04:52:08;2.80;93.60
2913;DHT22;1466;48.778;9.166;2023-03-01T04:54:35;2.80;93.60
2913;DHT22;1466;48.778;9.166;2023-03-01T04:57:02;2.80;93.60
2913;DHT22;1466;48.778;9.166;2023-03-01T04:59:28;2.80;93.60
2913;DHT22;1466;48.778;9.166;2023-03-01T05:01:55;2.90;93.60
2913;DHT22;1466;48.778;9.166;2023-03-01T05:04:22;2.80;93.60
2913;DHT22;1466;48.778;9.166;2023-03-01T05:06:48;2.80;93.70
2913;DHT22;1466;48.778;9.166;2023-03-01T05:09:13;2.80;93.60
2913;DHT22;1466;48.778;9.166;2023-03-01T05:11:39;2.70;93.60
2913;DHT22;1466;48.778;9.166;2023-03-01T05:14:06;2.80;93.80
2913;DHT22;1466;48.778;9.166;2023-03-01T05:16:33;2.80;93.80
2913;DHT22;1466;48.778;9.166;2023-03-01T05:18:59;2.90;93.80
2913;DHT22;1466;48.778;9.166;2023-03-01T05:21:25;2.90;93.70
2913;DHT22;1466;48.778;9.166;2023-03-01T05:23:51;2.90;93.70
2913;DHT22;1466;48.778;9.166;2023-03-01T05:26:18;2.80;93.70
2913;DHT22;1466;48.778;9.166;2023-03-01T05:28:44;2.70;93.80
2913;DHT22;1466;48.778;9.166;2023-03-01T05:31:10;2.80;93.80
2913;DHT22;1466;48.778;9.166;2023-03-01T05:33:37;2.80;93.80
2913;DHT22;1466;48.778;9.166;2023-03-01T05:36:04;2.80;93.80
2913;DHT22;1466;48.778;9.166;2023-03-01T05:38:29;2.70;93.80
2913;DHT22;1466;48.778;9.166;2023-03-01T05:40:55;2.80;94.00
2913;DHT22;1466;48.778;9.166;2023-03-01T05:43:20;2.90;93.90
2913;DHT22;1466;48.778;9.166;2023-03-01T05:45:46;3.00;93.80
2913;DHT22;1466;48.778;9.166;2023-03-01T05:48:13;3.00;93.80
2913;DHT22;1466;48.778;9.166;2023-03-01T05:50:43;2.90;93.70
2913;DHT22;1466;48.778;9.166;2023-03-01T05:53:17;2.90;93.70
2913;DHT22;1466;48.778;9.166;2023-03-01T05:55:44;2.90;93.70
2913;DHT22;1466;48.778;9.166;2023-03-01T05:58:14;2.90;93.70
2913;DHT22;1466;48.778;9.166;2023-03-01T06:00:41;3.00;93.90
2913;DHT22;1466;48.778;9.166;2023-03-01T06:03:06;2.90;93.70
2913;DHT22;1466;48.778;9.166;2023-03-01T06:05:34;2.90;93.70
2913;DHT22;1466;48.778;9.166;2023-03-01T06:08:01;2.90;94.10
2913;DHT22;1466;48.778;9.166;2023-03-01T06:10:27;2.90;93.90
2913;DHT22;1466;48.778;9.166;2023-03-01T06:12:53;2.80;93.80
2913;DHT22;1466;48.778;9.166;2023-03-01T06:15:19;2.80;93.90
2913;DHT22;1466;48.778;9.166;2023-03-01T06:17:45;2.90;94.10
2913;DHT22;1466;48.778;9.166;2023-03-01T06:22:42;3.00;94.00
2913;DHT22;1466;48.778;9.166;2023-03-01T06:25:09;3.10;93.90
2913;DHT22;1466;48.778;9.166;2023-03-01T06:27:35;3.20;93.90
2913;DHT22;1466;48.778;9.166;2023-03-01T06:30:01;3.20;93.60
2913;DHT22;1466;48.778;9.166;2023-03-01T06:32:26;3.00;93.50
2913;DHT22;1466;48.778;9.166;2023-03-01T06:34:52;2.90;93.60
2913;DHT22;1466;48.778;9.166;2023-03-01T06:39:44;2.60;93.60
2913;DHT22;1466;48.778;9.166;2023-03-01T06:42:09;2.70;94.10
2913;DHT22;1466;48.778;9.166;2023-03-01T06:44:36;2.70;94.20
2913;DHT22;1466;48.778;9.166;2023-03-01T06:47:02;2.90;94.20
2913;DHT22;1466;48.778;9.166;2023-03-01T06:49:28;3.00;94.10
2913;DHT22;1466;48.778;9.166;2023-03-01T06:51:54;3.00;94.00
2913;DHT22;1466;48.778;9.166;2023-03-01T06:54:20;3.10;94.00
2913;DHT22;1466;48.778;9.166;2023-03-01T06:56:47;3.10;93.90
2913;DHT22;1466;48.778;9.166;2023-03-01T06:59:13;3.10;93.80
2913;DHT22;1466;48.778;9.166;2023-03-01T07:01:39;3.20;93.90
2913;DHT22;1466;48.778;9.166;2023-03-01T07:04:04;3.20;93.80
2913;DHT22;1466;48.778;9.166;2023-03-01T07:06:30;3.20;93.70
2913;DHT22;1466;48.778;9.166;2023-03-01T07:08:55;3.10;93.60
2913;DHT22;1466;48.778;9.166;2023-03-01T07:11:22;3.00;93.40
2913;DHT22;1466;48.778;9.166;2023-03-01T07:13:48;3.00;93.60
2913;DHT22;1466;48.778;9.166;2023-03-01T07:16:14;3.00;93.70
2913;DHT22;1466;48.778;9.166;2023-03-01T07:18:40;2.90;93.60
2913;DHT22;1466;48.778;9.166;2023-03-01T07:21:07;2.90;93.70
2913;DHT22;1466;48.778;9.166;2023-03-01T07:23:33;2.80;93.70
2913;DHT22;1466;48.778;9.166;2023-03-01T07:25:59;2.80;93.80
2913;DHT22;1466;48.778;9.166;2023-03-01T07:28:26;2.90;93.90
2913;DHT22;1466;48.778;9.166;2023-03-01T07:30:52;2.90;93.80
2913;DHT22;1466;48.778;9.166;2023-03-01T07:33:18;2.90;93.80
2913;DHT22;1466;48.778;9.166;2023-03-01T07:35:44;2.90;93.80
2913;DHT22;1466;48.778;9.166;2023-03-01T07:38:09;2.80;93.70
2913;DHT22;1466;48.778;9.166;2023-03-01T07:40:35;2.80;93.60
2913;DHT22;1466;48.778;9.166;2023-03-01T07:43:00;2.90;93.80
2913;DHT22;1466;48.778;9.166;2023-03-01T07:45:27;2.90;93.70
2913;DHT22;1466;48.778;9.166;2023-03-01T07:47:53;2.90;93.60
2913;DHT22;1466;48.778;9.166;2023-03-01T07:50:20;3.00;93.60
2913;DHT22;1466;48.778;9.166;2023-03-01T07:52:46;2.90;93.60
2913;DHT22;1466;48.778;9.166;2023-03-01T07:55:12;3.00;93.60
2913;DHT22;1466;48.778;9.166;2023-03-01T07:57:38;3.10;93.70
2913;DHT22;1466;48.778;9.166;2023-03-01T08:00:05;3.10;93.60
2913;DHT22;1466;48.778;9.166;2023-03-01T08:02:31;3.10;93.50
2913;DHT22;1466;48.778;9.166;2023-03-01T08:04:57;3.20;93.40
2913;DHT22;1466;48.778;9.166;2023-03-01T08:07:23;3.10;93.30
2913;DHT22;1466;48.778;9.166;2023-03-01T08:09:48;3.20;93.50
2913;DHT22;1466;48.778;9.166;2023-03-01T08:12:14;3.20;93.30
2913;DHT22;1466;48.778;9.166;2023-03-01T08:14:41;3.20;93.30
2913;DHT22;1466;48.778;9.166;2023-03-01T08:17:07;3.30;93.40
2913;DHT22;1466;48.778;9.166;2023-03-01T08:19:32;3.40;93.40
2913;DHT22;1466;48.778;9.166;2023-03-01T08:22:01;3.40;93.40
2913;DHT22;1466;48.778;9.166;2023-03-01T08:24:26;3.50;93.30
2913;DHT22;1466;48.778;9.166;2023-03-01T08:26:52;3.40;93.10
2913;DHT22;1466;48.778;9.166;2023-03-01T08:29:18;3.50;93.20
2913;DHT22;1466;48.778;9.166;2023-03-01T08:31:44;3.50;93.20
2913;DHT22;1466;48.778;9.166;2023-03-01T08:34:12;3.60;93.00
2913;DHT22;1466;48.778;9.166;2023-03-01T08:36:40;3.70;92.80
2913;DHT22;1466;48.778;9.166;2023-03-01T08:39:07;3.70;92.70
2913;DHT22;1466;48.778;9.166;2023-03-01T08:41:33;3.70;92.60
2913;DHT22;1466;48.778;9.166;2023-03-01T08:43:59;3.80;92.80
2913;DHT22;1466;48.778;9.166;2023-03-01T08:46:26;3.80;92.70
2913;DHT22;1466;48.778;9.166;2023-03-01T08:48:52;3.90;92.60
2913;DHT22;1466;48.778;9.166;2023-03-01T08:51:19;3.90;92.30
2913;DHT22;1466;48.778;9.166;2023-03-01T08:53:45;3.90;92.30
2913;DHT22;1466;48.778;9.166;2023-03-01T08:56:11;4.00;92.50
2913;DHT22;1466;48.778;9.166;2023-03-01T08:58:37;4.10;92.30
2913;DHT22;1466;48.778;9.166;2023-03-01T09:01:10;4.40;92.50
2913;DHT22;1466;48.778;9.166;2023-03-01T09:03:36;5.00;92.50
2913;DHT22;1466;48.778;9.166;2023-03-01T09:06:03;5.60;91.80
2913;DHT22;1466;48.778;9.166;2023-03-01T09:08:30;6.00;91.20
2913;DHT22;1466;48.778;9.166;2023-03-01T09:10:55;6.30;90.70
2913;DHT22;1466;48.778;9.166;2023-03-01T09:13:21;6.60;90.10
2913;DHT22;1466;48.778;9.166;2023-03-01T09:15:50;6.70;88.90
2913;DHT22;1466;48.778;9.166;2023-03-01T09:18:15;6.80;87.90
2913;DHT22;1466;48.778;9.166;2023-03-01T09:20:41;6.80;87.30
2913;DHT22;1466;48.778;9.166;2023-03-01T09:23:07;6.90;87.90
2913;DHT22;1466;48.778;9.166;2023-03-01T09:25:34;7.00;87.20
2913;DHT22;1466;48.778;9.166;2023-03-01T09:28:00;7.00;86.70
2913;DHT22;1466;48.778;9.166;2023-03-01T09:30:25;7.00;86.50
2913;DHT22;1466;48.778;9.166;2023-03-01T09:32:51;7.00;86.50
2913;DHT22;1466;48.778;9.166;2023-03-01T09:35:17;7.10;86.30
2913;DHT22;1466;48.778;9.166;2023-03-01T09:37:45;7.10;86.00
2913;DHT22;1466;48.778;9.166;2023-03-01T09:40:20;6.90;85.40
2913;DHT22;1466;48.778;9.166;2023-03-01T09:42:58;6.90;85.90
2913;DHT22;1466;48.778;9.166;2023-03-01T09:45:38;7.00;86.20
2913;DHT22;1466;48.778;9.166;2023-03-01T09:48:16;6.90;85.60
2913;DHT22;1466;48.778;9.166;2023-03-01T09:50:43;6.80;85.40
2913;DHT22;1466;48.778;9.166;2023-03-01T09:53:21;6.70;85.50
2913;DHT22;1466;48.778;9.166;2023-03-01T09:56:11;6.50;85.40
2913;DHT22;1466;48.778;9.166;2023-03-01T10:01:45;6.30;86.00
2913;DHT22;1466;48.778;9.166;2023-03-01T10:04:39;6.30;86.40
2913;DHT22;1466;48.778;9.166;2023-03-01T10:07:17;6.20;86.20
2913;DHT22;1466;48.778;9.166;2023-03-01T10:09:46;6.20;86.80
2913;DHT22;1466;48.778;9.166;2023-03-01T10:12:24;6.20;86.80
2913;DHT22;1466;48.778;9.166;2023-03-01T10:15:18;6.20;87.10
2913;DHT22;1466;48.778;9.166;2023-03-01T10:17:51;6.30;87.10
2913;DHT22;1466;48.778;9.166;2023-03-01T10:22:48;6.50;86.50
2913;DHT22;1466;48.778;9.166;2023-03-01T10:28:17;6.60;85.10
2913;DHT22;1466;48.778;9.166;2023-03-01T10:30:45;6.40;84.70
2913;DHT22;1466;48.778;9.166;2023-03-01T10:33:24;6.50;85.20
2913;DHT22;1466;48.778;9.166;2023-03-01T10:35:51;6.60;85.30
2913;DHT22;1466;48.778;9.166;2023-03-01T10:38:18;6.70;85.10
2913;DHT22;1466;48.778;9.166;2023-03-01T10:41:00;6.90;84.70
2913;DHT22;1466;48.778;9.166;2023-03-01T10:43:48;6.90;84.00
2913;DHT22;1466;48.778;9.166;2023-03-01T10:46:34;7.10;84.00
2913;DHT22;1466;48.778;9.166;2023-03-01T10:49:20;7.20;83.90
2913;DHT22;1466;48.778;9.166;2023-03-01T10:51:49;7.50;83.50
2913;DHT22;1466;48.778;9.166;2023-03-01T10:54:32;7.60;83.10
2913;DHT22;1466;48.778;9.166;2023-03-01T10:57:04;7.70;82.30
2913;DHT22;1466;48.778;9.166;2023-03-01T10:59:33;7.90;81.80
2913;DHT22;1466;48.778;9.166;2023-03-01T11:02:20;8.00;82.00
2913;DHT22;1466;48.778;9.166;2023-03-01T11:04:58;8.20;81.20
2913;DHT22;1466;48.778;9.166;2023-03-01T11:07:24;8.30;80.60
2913;DHT22;1466;48.778;9.166;2023-03-01T11:09:50;8.40;80.30
2913;DHT22;1466;48.778;9.166;2023-03-01T11:12:16;8.40;79.70
2913;DHT22;1466;48.778;9.166;2023-03-01T11:14:53;8.50;79.90
2913;DHT22;1466;48.778;9.166;2023-03-01T11:17:30;8.60;79.90
2913;DHT22;1466;48.778;9.166;2023-03-01T11:20:24;8.50;79.40
2913;DHT22;1466;48.778;9.166;2023-03-01T11:22:54;8.50;79.50
2913;DHT22;1466;48.778;9.166;2023-03-01T11:25:27;8.30;79.00
2913;DHT22;1466;48.778;9.166;2023-03-01T11:27:54;8.20;79.50
2913;DHT22;1466;48.778;9.166;2023-03-01T11:30:38;8.10;79.90
2913;DHT22;1466;48.778;9.166;2023-03-01T11:35:35;8.10;80.10
2913;DHT22;1466;48.778;9.166;2023-03-01T11:40:51;8.30;80.50
2913;DHT22;1466;48.778;9.166;2023-03-01T11:43:56;8.40;80.00
2913;DHT22;1466;48.778;9.166;2023-03-01T12:01:11;8.30;79.50
2913;DHT22;1466;48.778;9.166;2023-03-01T12:07:04;8.30;79.50
2913;DHT22;1466;48.778;9.166;2023-03-01T12:20:30;8.50;79.20
2913;DHT22;1466;48.778;9.166;2023-03-01T12:42:58;8.90;78.20
2913;DHT22;1466;48.778;9.166;2023-03-01T12:45:34;8.90;78.50
2913;DHT22;1466;48.778;9.166;2023-03-01T12:50:44;9.00;78.60
2913;DHT22;1466;48.778;9.166;2023-03-01T12:53:26;9.10;78.40
2913;DHT22;1466;48.778;9.166;2023-03-01T12:56:16;9.10;78.50
2913;DHT22;1466;48.778;9.166;2023-03-01T13:12:52;9.40;77.80
2913;DHT22;1466;48.778;9.166;2023-03-01T13:18:04;9.40;77.50
2913;DHT22;1466;48.778;9.166;2023-03-01T13:31:00;9.50;77.40
2913;DHT22;1466;48.778;9.166;2023-03-01T13:35:55;9.60;77.40
2913;DHT22;1466;48.778;9.166;2023-03-01T13:41:04;9.70;77.70
2913;DHT22;1466;48.778;9.166;2023-03-01T13:43:32;9.70;76.90
2913;DHT22;1466;48.778;9.166;2023-03-01T13:45:59;9.60;77.00
2913;DHT22;1466;48.778;9.166;2023-03-01T13:48:28;9.60;77.20
2913;DHT22;1466;48.778;9.166;2023-03-01T13:51:07;9.60;77.10
2913;DHT22;1466;48.778;9.166;2023-03-01T13:53:44;9.60;77.00
2913;DHT22;1466;48.778;9.166;2023-03-01T13:56:21;9.60;77.10
2913;DHT22;1466;48.778;9.166;2023-03-01T13:58:58;9.60;77.20
2913;DHT22;1466;48.778;9.166;2023-03-01T14:01:34;9.50;77.30
2913;DHT22;1466;48.778;9.166;2023-03-01T14:04:18;9.40;77.90
2913;DHT22;1466;48.778;9.166;2023-03-01T14:06:45;9.30;77.80
2913;DHT22;1466;48.778;9.166;2023-03-01T14:09:20;9.30;78.00
2913;DHT22;1466;48.778;9.166;2023-03-01T14:19:59;9.20;78.60
2913;DHT22;1466;48.778;9.166;2023-03-01T14:22:34;9.20;78.90
2913;DHT22;1466;48.778;9.166;2023-03-01T14:25:00;9.10;78.80
2913;DHT22;1466;48.778;9.166;2023-03-01T14:27:30;9.10;79.30
2913;DHT22;1466;48.778;9.166;2023-03-01T14:30:15;9.10;79.60
2913;DHT22;1466;48.778;9.166;2023-03-01T14:32:43;9.20;79.50
2913;DHT22;1466;48.778;9.166;2023-03-01T14:35:26;9.20;79.10
2913;DHT22;1466;48.778;9.166;2023-03-01T14:37:52;9.20;79.30
2913;DHT22;1466;48.778;9.166;2023-03-01T14:40:44;9.10;79.30
2913;DHT22;1466;48.778;9.166;2023-03-01T14:43:13;9.10;79.60
2913;DHT22;1466;48.778;9.166;2023-03-01T14:45:47;9.00;80.10
2913;DHT22;1466;48.778;9.166;2023-03-01T14:48:13;9.10;80.10
2913;DHT22;1466;48.778;9.166;2023-03-01T14:50:42;9.10;80.10
2913;DHT22;1466;48.778;9.166;2023-03-01T14:53:22;9.20;80.20
2913;DHT22;1466;48.778;9.166;2023-03-01T14:55:51;9.30;80.30
2913;DHT22;1466;48.778;9.166;2023-03-01T14:58:20;9.30;80.00
2913;DHT22;1466;48.778;9.166;2023-03-01T15:00:53;9.30;79.70
2913;DHT22;1466;48.778;9.166;2023-03-01T15:03:38;9.30;79.80
2913;DHT22;1466;48.778;9.166;2023-03-01T15:06:07;9.30;79.70
2913;DHT22;1466;48.778;9.166;2023-03-01T15:08:33;9.30;79.80
2913;DHT22;1466;48.778;9.166;2023-03-01T15:13:48;9.30;79.90
2913;DHT22;1466;48.778;9.166;2023-03-01T15:16:17;9.20;80.00
2913;DHT22;1466;48.778;9.166;2023-03-01T15:18:46;9.30;80.10
2913;DHT22;1466;48.778;9.166;2023-03-01T15:23:40;9.10;80.10
2913;DHT22;1466;48.778;9.166;2023-03-01T15:26:16;9.20;80.50
2913;DHT22;1466;48.778;9.166;2023-03-01T15:28:50;9.20;80.40
2913;DHT22;1466;48.778;9.166;2023-03-01T15:31:25;9.20;80.30
2913;DHT22;1466;48.778;9.166;2023-03-01T15:33:51;9.20;80.20
2913;DHT22;1466;48.778;9.166;2023-03-01T15:39:03;9.20;80.30
2913;DHT22;1466;48.778;9.166;2023-03-01T15:41:46;9.20;80.40
2913;DHT22;1466;48.778;9.166;2023-03-01T15:44:23;9.20;80.50
2913;DHT22;1466;48.778;9.166;2023-03-01T15:46:49;9.20;80.40
2913;DHT22;1466;48.778;9.166;2023-03-01T15:49:39;9.20;80.30
2913;DHT22;1466;48.778;9.166;2023-03-01T15:52:13;9.10;80.30
2913;DHT22;1466;48.778;9.166;2023-03-01T15:54:41;9.10;80.30
2913;DHT22;1466;48.778;9.166;2023-03-01T15:57:13;9.00;80.40
2913;DHT22;1466;48.778;9.166;2023-03-01T15:59:40;8.80;80.00
2913;DHT22;1466;48.778;9.166;2023-03-01T16:02:10;8.80;79.90
2913;DHT22;1466;48.778;9.166;2023-03-01T16:04:38;8.80;80.00
2913;DHT22;1466;48.778;9.166;2023-03-01T16:07:04;8.80;80.80
2913;DHT22;1466;48.778;9.166;2023-03-01T16:09:30;8.90;80.00
2913;DHT22;1466;48.778;9.166;2023-03-01T16:11:55;9.00;79.20
2913;DHT22;1466;48.778;9.166;2023-03-01T16:14:21;9.20;79.10
2913;DHT22;1466;48.778;9.166;2023-03-01T16:16:47;9.20;78.70
2913;DHT22;1466;48.778;9.166;2023-03-01T16:19:14;9.10;78.70
2913;DHT22;1466;48.778;9.166;2023-03-01T16:21:40;9.00;78.40
2913;DHT22;1466;48.778;9.166;2023-03-01T16:24:06;8.90;78.60
2913;DHT22;1466;48.778;9.166;2023-03-01T16:26:32;8.90;78.70
2913;DHT22;1466;48.778;9.166;2023-03-01T16:28:57;8.80;78.70
2913;DHT22;1466;48.778;9.166;2023-03-01T16:31:23;8.80;78.90
2913;DHT22;1466;48.778;9.166;2023-03-01T16:33:53;8.80;79.30
2913;DHT22;1466;48.778;9.166;2023-03-01T16:36:20;8.70;79.30
2913;DHT22;1466;48.778;9.166;2023-03-01T16:38:49;8.70;79.50
2913;DHT22;1466;48.778;9.166;2023-03-01T16:41:16;8.70;79.70
2913;DHT22;1466;48.778;9.166;2023-03-01T16:43:42;8.60;79.80
2913;DHT22;1466;48.778;9.166;2023-03-01T16:46:13;8.60;80.00
2913;DHT22;1466;48.778;9.166;2023-03-01T16:48:39;8.60;80.00
2913;DHT22;1466;48.778;9.166;2023-03-01T16:51:05;8.50;79.90
2913;DHT22;1466;48.778;9.166;2023-03-01T16:53:32;8.50;80.10
2913;DHT22;1466;48.778;9.166;2023-03-01T16:55:59;8.50;80.20
2913;DHT22;1466;48.778;9.166;2023-03-01T16:58:25;8.50;80.20
2913;DHT22;1466;48.778;9.166;2023-03-01T17:00:52;8.50;80.20
2913;DHT22;1466;48.778;9.166;2023-03-01T17:03:23;8.40;80.30
2913;DHT22;1466;48.778;9.166;2023-03-01T17:05:49;8.40;80.70
2913;DHT22;1466;48.778;9.166;2023-03-01T17:08:15;8.30;81.00
2913;DHT22;1466;48.778;9.166;2023-03-01T17:10:41;8.20;81.30
2913;DHT22;1466;48.778;9.166;2023-03-01T17:13:08;8.10;81.30
2913;DHT22;1466;48.778;9.166;2023-03-01T17:15:34;8.10;81.50
2913;DHT22;1466;48.778;9.166;2023-03-01T17:18:00;8.00;81.50
2913;DHT22;1466;48.778;9.166;2023-03-01T17:20:26;8.00;81.80
2913;DHT22;1466;48.778;9.166;2023-03-01T17:22:52;8.10;81.80
2913;DHT22;1466;48.778;9.166;2023-03-01T17:25:18;8.00;81.60
2913;DHT22;1466;48.778;9.166;2023-03-01T17:27:44;8.10;81.90
2913;DHT22;1466;48.778;9.166;2023-03-01T17:30:11;8.00;81.90
2913;DHT22;1466;48.778;9.166;2023-03-01T17:32:37;8.00;81.90
2913;DHT22;1466;48.778;9.166;2023-03-01T17:35:03;8.00;82.00
2913;DHT22;1466;48.778;9.166;2023-03-01T17:37:28;8.10;82.10
2913;DHT22;1466;48.778;9.166;2023-03-01T17:39:54;8.10;82.00
2913;DHT22;1466;48.778;9.166;2023-03-01T17:42:19;8.00;81.90
2913;DHT22;1466;48.778;9.166;2023-03-01T17:44:45;8.00;81.90
2913;DHT22;1466;48.778;9.166;2023-03-01T17:47:11;8.10;82.00
2913;DHT22;1466;48.778;9.166;2023-03-01T17:49:36;8.00;81.90
2913;DHT22;1466;48.778;9.166;2023-03-01T17:52:02;8.00;81.90
2913;DHT22;1466;48.778;9.166;2023-03-01T17:54:28;8.00;82.00
2913;DHT22;1466;48.778;9.166;2023-03-01T17:56:54;8.00;82.00
2913;DHT22;1466;48.778;9.166;2023-03-01T17:59:20;8.00;81.90
2913;DHT22;1466;48.778;9.166;2023-03-01T18:01:46;8.00;82.00
2913;DHT22;1466;48.778;9.166;2023-03-01T18:04:12;7.90;82.00
2913;DHT22;1466;48.778;9.166;2023-03-01T18:06:38;7.90;82.20
2913;DHT22;1466;48.778;9.166;2023-03-01T18:09:05;7.80;82.20
2913;DHT22;1466;48.778;9.166;2023-03-01T18:11:32;7.80;82.40
2913;DHT22;1466;48.778;9.166;2023-03-01T18:13:58;7.70;82.80
2913;DHT22;1466;48.778;9.166;2023-03-01T18:16:24;7.60;82.80
2913;DHT22;1466;48.778;9.166;2023-03-01T18:18:54;7.60;83.00
2913;DHT22;1466;48.778;9.166;2023-03-01T18:21:20;7.50;83.30
2913;DHT22;1466;48.778;9.166;2023-03-01T18:23:48;7.40;83.40
2913;DHT22;1466;48.778;9.166;2023-03-01T18:26:16;7.40;83.80
2913;DHT22;1466;48.778;9.166;2023-03-01T18:28:44;7.30;84.00
2913;DHT22;1466;48.778;9.166;2023-03-01T18:31:13;7.30;84.30
2913;DHT22;1466;48.778;9.166;2023-03-01T18:33:39;7.20;84.20
2913;DHT22;1466;48.778;9.166;2023-03-01T18:36:12;7.20;84.40
2913;DHT22;1466;48.778;9.166;2023-03-01T18:38:40;7.10;84.60
2913;DHT22;1466;48.778;9.166;2023-03-01T18:41:05;7.10;84.70
2913;DHT22;1466;48.778;9.166;2023-03-01T18:43:37;7.10;84.90
2913;DHT22;1466;48.778;9.166;2023-03-01T18:46:03;7.10;85.30